createdAt,value
2022-08-02T00:01:07.345Z,17.99
2022-08-02T00:03:36.372Z,17.92
2022-08-02T00:06:05.469Z,17.90
2022-08-02T00:08:34.469Z,17.88
2022-08-02T00:11:03.411Z,17.84
2022-08-02T00:13:34.151Z,17.80
2022-08-02T00:16:03.271Z,17.74
2022-08-02T00:18:32.603Z,17.69
2022-08-02T00:21:01.597Z,17.65
2022-08-02T00:23:30.709Z,17.63
2022-08-02T00:25:59.667Z,17.58
2022-08-02T00:28:28.855Z,17.52
2022-08-02T00:31:00.179Z,17.49
2022-08-02T00:34:26.537Z,17.44
2022-08-02T00:36:18.708Z,17.41
2022-08-02T00:38:48.793Z,17.37
2022-08-02T00:41:21.016Z,17.32
2022-08-02T00:43:52.697Z,17.27
2022-08-02T00:46:23.103Z,17.24
2022-08-02T00:48:52.240Z,17.21
2022-08-02T00:51:21.195Z,17.21
2022-08-02T00:53:50.156Z,17.15
2022-08-02T00:56:19.112Z,17.13
2022-08-02T00:58:48.095Z,17.09
2022-08-02T01:01:17.497Z,17.04
2022-08-02T01:03:49.148Z,17.01
2022-08-02T01:06:18.537Z,16.97
2022-08-02T01:08:47.510Z,16.94
2022-08-02T01:11:16.477Z,16.91
2022-08-02T01:13:45.844Z,16.90
2022-08-02T01:16:21.901Z,16.86
2022-08-02T01:19:01.521Z,16.85
2022-08-02T01:22:10.160Z,16.86
2022-08-02T01:25:14.635Z,16.85
2022-08-02T01:28:18.693Z,16.83
2022-08-02T01:30:56.852Z,16.83
2022-08-02T01:33:33.574Z,16.80
2022-08-02T01:36:08.951Z,16.82
2022-08-02T01:38:46.275Z,16.80
2022-08-02T01:41:22.772Z,16.77
2022-08-02T01:43:59.039Z,16.70
2022-08-02T01:46:31.675Z,16.63
2022-08-02T01:49:09.412Z,16.61
2022-08-02T01:51:58.787Z,16.61
2022-08-02T01:54:34.172Z,16.56
2022-08-02T01:57:13.022Z,16.55
2022-08-02T01:59:46.276Z,16.53
2022-08-02T02:02:18.226Z,16.52
2022-08-02T02:04:53.182Z,16.49
2022-08-02T02:07:23.839Z,16.43
2022-08-02T02:09:55.726Z,16.36
2022-08-02T02:12:26.510Z,16.35
2022-08-02T02:14:59.366Z,16.29
2022-08-02T02:17:53.178Z,16.26
2022-08-02T02:20:21.660Z,16.24
2022-08-02T02:22:51.033Z,16.21
2022-08-02T02:25:36.070Z,16.23
2022-08-02T02:28:16.357Z,16.20
2022-08-02T02:30:53.311Z,16.18
2022-08-02T02:33:29.053Z,16.13
2022-08-02T02:36:01.692Z,16.13
2022-08-02T02:38:35.106Z,16.13
2022-08-02T02:41:07.799Z,16.11
2022-08-02T02:43:39.904Z,16.10
2022-08-02T02:46:11.907Z,16.08
2022-08-02T02:48:42.604Z,16.01
2022-08-02T02:51:14.409Z,15.96
2022-08-02T02:54:32.388Z,15.94
2022-08-02T02:56:38.076Z,15.89
2022-08-02T02:59:09.228Z,15.86
2022-08-02T03:01:56.910Z,15.82
2022-08-02T03:04:55.218Z,15.78
2022-08-02T03:07:19.089Z,15.76
2022-08-02T03:09:54.219Z,15.73
2022-08-02T03:12:31.438Z,15.67
2022-08-02T03:15:05.097Z,15.61
2022-08-02T03:17:43.633Z,15.61
2022-08-02T03:20:16.294Z,15.56
2022-08-02T03:22:46.414Z,15.53
2022-08-02T03:25:17.695Z,15.50
2022-08-02T03:27:48.505Z,15.47
2022-08-02T03:30:17.732Z,15.48
2022-08-02T03:32:50.039Z,15.42
2022-08-02T03:35:24.080Z,15.42
2022-08-02T03:37:57.062Z,15.40
2022-08-02T03:40:26.979Z,15.34
2022-08-02T03:42:56.673Z,15.37
2022-08-02T03:45:27.356Z,15.41
2022-08-02T03:47:59.144Z,15.40
2022-08-02T03:50:28.718Z,15.40
2022-08-02T03:52:58.632Z,15.41
2022-08-02T03:55:28.010Z,15.38
2022-08-02T03:57:57.313Z,15.35
2022-08-02T04:00:26.460Z,15.28
2022-08-02T04:02:55.336Z,15.29
2022-08-02T04:05:26.757Z,15.25
2022-08-02T04:08:01.208Z,15.23
2022-08-02T04:11:04.195Z,15.23
2022-08-02T04:13:38.056Z,15.21
2022-08-02T04:16:13.498Z,15.21
2022-08-02T04:18:55.029Z,15.16
2022-08-02T04:21:49.245Z,15.18
2022-08-02T04:24:24.540Z,15.21
2022-08-02T04:26:57.754Z,15.18
2022-08-02T04:29:37.826Z,15.15
2022-08-02T04:32:09.421Z,15.21
2022-08-02T04:34:39.146Z,15.19
2022-08-02T04:37:15.142Z,15.27
2022-08-02T04:39:44.508Z,15.29
2022-08-02T04:42:22.869Z,15.30
2022-08-02T04:44:53.293Z,15.39
2022-08-02T04:47:54.066Z,15.43
2022-08-02T04:50:12.161Z,15.49
2022-08-02T04:52:45.801Z,15.49
2022-08-02T04:55:15.685Z,15.54
2022-08-02T04:57:57.709Z,15.58
2022-08-02T05:00:28.661Z,15.70
2022-08-02T05:02:58.900Z,15.70
2022-08-02T05:05:28.433Z,15.77
2022-08-02T05:07:59.227Z,15.70
2022-08-02T05:10:28.321Z,15.86
2022-08-02T05:12:57.279Z,15.90
2022-08-02T05:15:29.242Z,15.95
2022-08-02T05:18:00.681Z,15.97
2022-08-02T05:20:29.713Z,16.08
2022-08-02T05:23:00.274Z,16.06
2022-08-02T05:25:35.378Z,16.17
2022-08-02T05:28:08.256Z,16.23
2022-08-02T05:30:40.952Z,16.32
2022-08-02T05:33:09.943Z,16.43
2022-08-02T05:35:38.947Z,16.51
2022-08-02T05:38:10.190Z,16.58
2022-08-02T05:40:54.934Z,16.73
2022-08-02T05:43:24.447Z,16.79
2022-08-02T05:45:55.066Z,16.85
2022-08-02T05:48:29.102Z,16.97
2022-08-02T05:51:05.548Z,17.10
2022-08-02T05:53:46.563Z,17.15
2022-08-02T05:56:25.860Z,17.23
2022-08-02T05:59:04.164Z,17.38
2022-08-02T06:01:37.099Z,17.47
2022-08-02T06:04:09.760Z,17.54
2022-08-02T06:06:45.533Z,17.64
2022-08-02T06:09:23.122Z,17.77
2022-08-02T06:12:02.048Z,17.94
2022-08-02T06:14:34.121Z,18.05
2022-08-02T06:17:06.048Z,18.12
2022-08-02T06:19:47.012Z,18.20
2022-08-02T06:22:40.706Z,18.27
2022-08-02T06:25:50.163Z,18.41
2022-08-02T06:28:10.156Z,18.55
2022-08-02T06:30:41.599Z,18.75
2022-08-02T06:33:11.011Z,18.87
2022-08-02T06:35:47.742Z,19.04
2022-08-02T06:38:25.213Z,19.20
2022-08-02T06:41:04.467Z,19.39
2022-08-02T06:43:46.475Z,19.52
2022-08-02T06:46:34.500Z,19.66
2022-08-02T06:49:06.555Z,19.82
2022-08-02T06:51:37.445Z,20.02
2022-08-02T06:54:08.631Z,20.24
2022-08-02T06:56:38.880Z,20.44
2022-08-02T06:59:08.369Z,20.62
2022-08-02T07:01:38.530Z,20.80
2022-08-02T07:04:11.237Z,20.98
2022-08-02T07:06:47.583Z,21.18
2022-08-02T07:09:21.302Z,21.42
2022-08-02T07:11:52.011Z,21.67
2022-08-02T07:14:23.964Z,21.87
2022-08-02T07:16:53.539Z,22.10
2022-08-02T07:19:23.888Z,22.35
2022-08-02T07:22:06.915Z,22.62
2022-08-02T07:24:37.384Z,22.85
2022-08-02T07:27:14.286Z,23.10
2022-08-02T07:29:46.248Z,23.42
2022-08-02T07:32:17.273Z,23.74
2022-08-02T07:34:50.483Z,24.03
2022-08-02T07:37:53.359Z,24.32
2022-08-02T07:40:20.030Z,24.62
2022-08-02T07:42:59.281Z,24.96
2022-08-02T07:45:35.813Z,25.28
2022-08-02T07:48:08.692Z,25.61
2022-08-02T07:50:40.603Z,25.89
2022-08-02T07:53:09.509Z,26.13
2022-08-02T07:55:40.312Z,26.43
2022-08-02T07:58:13.713Z,26.74
2022-08-02T08:00:45.152Z,27.09
2022-08-02T08:03:14.858Z,27.50
2022-08-02T08:05:43.874Z,27.88
2022-08-02T08:08:17.387Z,28.08
2022-08-02T08:10:47.332Z,28.34
2022-08-02T08:13:18.250Z,28.51
2022-08-02T08:15:51.718Z,28.19
2022-08-02T08:18:22.589Z,28.58
2022-08-02T08:20:51.896Z,29.11
2022-08-02T08:23:21.837Z,29.56
2022-08-02T08:25:50.748Z,29.85
2022-08-02T08:28:21.019Z,30.09
2022-08-02T08:30:50.099Z,30.44
2022-08-02T08:33:18.995Z,30.65
2022-08-02T08:35:50.688Z,30.90
2022-08-02T08:38:28.078Z,31.10
2022-08-02T08:40:57.884Z,31.24
2022-08-02T08:43:30.328Z,31.42
2022-08-02T08:45:59.273Z,31.55
2022-08-02T08:48:31.865Z,31.75
2022-08-02T08:51:17.438Z,31.98
2022-08-02T08:53:50.886Z,32.14
2022-08-02T08:56:20.433Z,32.31
2022-08-02T08:59:11.884Z,32.43
2022-08-02T09:01:52.147Z,32.65
2022-08-02T09:04:22.748Z,32.93
2022-08-02T09:06:51.989Z,33.08
2022-08-02T09:09:21.228Z,33.18
2022-08-02T09:11:50.423Z,33.32
2022-08-02T09:14:32.701Z,33.34
2022-08-02T09:17:13.292Z,33.48
2022-08-02T09:19:46.202Z,33.74
2022-08-02T09:22:16.863Z,33.96
2022-08-02T09:24:47.886Z,34.15
2022-08-02T09:27:19.212Z,33.97
2022-08-02T09:30:13.305Z,34.02
2022-08-02T09:32:48.151Z,34.43
2022-08-02T09:36:07.146Z,34.64
2022-08-02T09:38:22.457Z,34.90
2022-08-02T09:40:55.011Z,35.13
2022-08-02T09:43:35.633Z,35.31
2022-08-02T09:46:18.327Z,35.55
2022-08-02T09:48:55.947Z,35.80
2022-08-02T09:51:27.093Z,35.89
2022-08-02T09:54:07.974Z,35.95
2022-08-02T09:56:47.941Z,36.12
2022-08-02T09:59:18.450Z,36.38
2022-08-02T10:01:51.549Z,36.59
2022-08-02T10:04:33.917Z,36.83
2022-08-02T10:07:04.911Z,37.08
2022-08-02T10:09:34.719Z,37.22
2022-08-02T10:12:04.861Z,37.28
2022-08-02T10:14:35.877Z,37.26
2022-08-02T10:17:07.364Z,37.41
2022-08-02T10:20:01.731Z,37.69
2022-08-02T10:22:27.414Z,37.89
2022-08-02T10:24:57.043Z,38.17
2022-08-02T10:27:48.877Z,38.27
2022-08-02T10:30:19.781Z,38.23
2022-08-02T10:32:53.923Z,38.39
2022-08-02T10:35:26.622Z,38.64
2022-08-02T10:38:01.441Z,38.85
2022-08-02T10:40:45.242Z,39.05
2022-08-02T10:43:34.799Z,39.11
2022-08-02T10:46:22.146Z,39.03
2022-08-02T10:52:21.396Z,39.03
2022-08-02T10:54:56.681Z,39.04
2022-08-02T10:57:27.711Z,38.85
2022-08-02T10:59:57.499Z,39.11
2022-08-02T11:02:53.265Z,39.31
2022-08-02T11:05:43.130Z,39.36
2022-08-02T11:08:25.126Z,39.27
2022-08-02T11:10:59.044Z,39.22
2022-08-02T11:13:30.123Z,39.40
2022-08-02T11:16:05.342Z,39.45
2022-08-02T11:19:06.647Z,39.44
2022-08-02T11:21:37.985Z,39.44
2022-08-02T11:24:27.890Z,39.67
2022-08-02T11:26:57.608Z,39.77
2022-08-02T11:29:39.083Z,39.48
2022-08-02T11:32:16.151Z,38.96
2022-08-02T11:34:47.474Z,38.77
2022-08-02T11:37:30.601Z,39.05
2022-08-02T11:39:59.870Z,39.23
2022-08-02T11:42:37.132Z,39.22
2022-08-02T11:45:08.246Z,39.21
2022-08-02T11:47:47.206Z,39.37
2022-08-02T11:50:17.903Z,39.38
2022-08-02T11:52:48.888Z,39.35
2022-08-02T11:55:18.218Z,38.65
2022-08-02T11:58:01.509Z,38.16
2022-08-02T12:00:34.667Z,38.61
2022-08-02T12:03:04.187Z,39.22
2022-08-02T12:08:26.930Z,39.73
2022-08-02T12:11:01.669Z,39.44
2022-08-02T12:13:42.447Z,39.06
2022-08-02T12:16:33.009Z,38.60
2022-08-02T12:19:21.578Z,38.53
2022-08-02T12:22:07.440Z,39.17
2022-08-02T12:24:39.049Z,39.60
2022-08-02T12:27:09.131Z,39.90
2022-08-02T12:29:58.544Z,40.15
2022-08-02T12:32:29.203Z,39.96
2022-08-02T12:35:11.285Z,39.71
2022-08-02T12:37:42.374Z,39.40
2022-08-02T12:40:25.159Z,39.36
2022-08-02T12:42:58.768Z,39.84
2022-08-02T12:45:41.329Z,39.99
2022-08-02T12:48:11.835Z,39.74
2022-08-02T12:50:41.730Z,39.35
2022-08-02T12:53:12.797Z,39.08
2022-08-02T12:55:59.401Z,39.04
2022-08-02T12:58:32.026Z,38.98
2022-08-02T13:01:02.718Z,38.70
2022-08-02T13:04:10.270Z,38.47
2022-08-02T13:06:40.880Z,38.69
2022-08-02T13:09:17.480Z,38.95
2022-08-02T13:11:48.167Z,39.16
2022-08-02T13:14:17.480Z,39.17
2022-08-02T13:16:49.988Z,39.24
2022-08-02T13:19:18.955Z,39.36
2022-08-02T13:22:02.797Z,39.27
2022-08-02T13:24:39.850Z,39.25
2022-08-02T13:27:25.925Z,39.11
2022-08-02T13:29:58.456Z,39.00
2022-08-02T13:32:29.173Z,38.95
2022-08-02T13:34:59.237Z,39.10
2022-08-02T13:37:28.525Z,39.24
2022-08-02T13:40:21.150Z,39.28
2022-08-02T13:42:49.432Z,39.01
2022-08-02T13:45:18.590Z,38.85
2022-08-02T13:48:04.750Z,38.50
2022-08-02T13:50:34.607Z,38.70
2022-08-02T13:53:03.575Z,38.88
2022-08-02T13:55:32.678Z,38.89
2022-08-02T13:58:04.830Z,38.99
2022-08-02T14:00:35.305Z,39.06
2022-08-02T14:03:07.450Z,39.00
2022-08-02T14:05:48.158Z,39.03
2022-08-02T14:08:19.795Z,39.13
2022-08-02T14:10:50.422Z,38.94
2022-08-02T14:13:21.318Z,38.78
2022-08-02T14:15:50.341Z,39.02
2022-08-02T14:18:19.371Z,39.23
2022-08-02T14:20:48.537Z,39.38
2022-08-02T14:23:17.506Z,39.52
2022-08-02T14:25:46.441Z,39.51
2022-08-02T14:28:15.653Z,39.41
2022-08-02T14:30:46.556Z,39.39
2022-08-02T14:33:15.729Z,39.26
2022-08-02T14:35:44.707Z,39.33
2022-08-02T14:38:13.706Z,39.43
2022-08-02T14:40:42.766Z,39.60
2022-08-02T14:43:12.831Z,39.81
2022-08-02T14:45:43.354Z,39.96
2022-08-02T14:48:13.733Z,39.94
2022-08-02T14:50:42.696Z,39.96
2022-08-02T14:53:12.080Z,39.97
2022-08-02T14:55:43.525Z,39.98
2022-08-02T14:58:12.592Z,39.91
2022-08-02T15:00:42.133Z,39.85
2022-08-02T15:03:15.299Z,39.97
2022-08-02T15:05:44.196Z,40.03
2022-08-02T15:08:16.992Z,40.02
2022-08-02T15:10:46.651Z,40.03
2022-08-02T15:13:15.542Z,40.02
2022-08-02T15:15:44.452Z,40.01
2022-08-02T15:18:15.726Z,40.07
2022-08-02T15:20:57.162Z,40.16
2022-08-02T15:23:37.617Z,40.15
2022-08-02T15:26:08.192Z,40.17
2022-08-02T15:28:38.539Z,40.19
2022-08-02T15:31:07.507Z,40.19
2022-08-02T15:33:37.798Z,40.08
2022-08-02T15:36:07.797Z,39.90
2022-08-02T15:38:37.115Z,40.02
2022-08-02T15:41:06.315Z,40.02
2022-08-02T15:44:00.033Z,39.89
2022-08-02T15:46:32.139Z,39.71
2022-08-02T15:49:02.802Z,39.54
2022-08-02T15:51:31.991Z,39.59
2022-08-02T15:54:01.009Z,39.53
2022-08-02T15:56:30.024Z,39.51
2022-08-02T15:58:59.102Z,39.43
2022-08-02T16:01:36.947Z,39.33
2022-08-02T16:04:08.566Z,39.36
2022-08-02T16:06:37.754Z,39.35
2022-08-02T16:09:06.909Z,39.40
2022-08-02T16:11:36.027Z,39.42
2022-08-02T16:14:08.130Z,39.54
2022-08-02T16:16:39.125Z,39.62
2022-08-02T16:19:47.287Z,39.65
2022-08-02T16:21:57.978Z,39.72
2022-08-02T16:24:27.239Z,39.78
2022-08-02T16:26:58.665Z,39.77
2022-08-02T16:29:27.579Z,39.77
2022-08-02T16:32:02.572Z,39.86
2022-08-02T16:34:50.819Z,39.91
2022-08-02T16:37:27.392Z,39.95
2022-08-02T16:40:16.304Z,39.94
2022-08-02T16:45:36.223Z,39.77
2022-08-02T16:48:07.677Z,39.62
2022-08-02T16:50:39.754Z,39.55
2022-08-02T16:53:08.830Z,39.44
2022-08-02T16:55:40.134Z,39.29
2022-08-02T16:58:20.758Z,39.10
2022-08-02T17:00:49.738Z,38.91
2022-08-02T17:03:18.817Z,38.68
2022-08-02T17:05:56.362Z,38.44
2022-08-02T17:08:31.875Z,38.22
2022-08-02T17:11:03.276Z,37.93
2022-08-02T17:13:34.199Z,37.65
2022-08-02T17:16:20.514Z,37.33
2022-08-02T17:18:56.361Z,36.99
2022-08-02T17:21:26.704Z,36.62
2022-08-02T17:24:06.372Z,36.31
2022-08-02T17:26:39.072Z,36.00
2022-08-02T17:29:15.570Z,35.68
2022-08-02T17:32:05.006Z,35.32
2022-08-02T17:34:37.774Z,34.94
2022-08-02T17:37:08.472Z,34.64
2022-08-02T17:39:44.198Z,34.37
2022-08-02T17:42:23.292Z,34.10
2022-08-02T17:44:54.443Z,33.81
2022-08-02T17:47:31.003Z,33.58
2022-08-02T17:50:00.648Z,33.39
2022-08-02T17:52:52.469Z,33.17
2022-08-02T17:55:23.373Z,32.94
2022-08-02T17:57:57.194Z,32.71
2022-08-02T18:00:34.368Z,32.47
2022-08-02T18:03:07.988Z,32.24
2022-08-02T18:05:53.190Z,32.05
2022-08-02T18:08:25.583Z,31.87
2022-08-02T18:10:57.171Z,31.69
2022-08-02T18:13:32.720Z,31.54
2022-08-02T18:16:03.208Z,31.40
2022-08-02T18:18:32.938Z,31.23
2022-08-02T18:26:28.410Z,30.83
2022-08-02T18:28:59.046Z,30.65
2022-08-02T18:31:28.131Z,30.47
2022-08-02T18:34:02.303Z,30.27
2022-08-02T18:36:32.495Z,30.08
2022-08-02T18:39:08.301Z,29.89
2022-08-02T18:41:38.889Z,29.69
2022-08-02T18:44:07.874Z,29.54
2022-08-02T18:46:39.849Z,29.38
2022-08-02T18:49:14.799Z,29.18
2022-08-02T18:51:44.813Z,28.98
2022-08-02T18:54:14.691Z,28.79
2022-08-02T18:56:47.240Z,28.62
2022-08-02T18:59:16.859Z,28.46
2022-08-02T19:01:50.963Z,28.31
2022-08-02T19:04:26.882Z,28.17
2022-08-02T19:07:07.328Z,28.04
2022-08-02T19:09:39.997Z,27.85
2022-08-02T19:12:12.457Z,27.67
2022-08-02T19:14:42.054Z,27.47
2022-08-02T19:17:53.339Z,27.30
2022-08-02T19:20:00.153Z,27.14
2022-08-02T19:22:29.914Z,26.96
2022-08-02T19:25:01.038Z,26.79
2022-08-02T19:27:33.194Z,26.64
2022-08-02T19:30:03.831Z,26.48
2022-08-02T19:32:41.854Z,26.33
2022-08-02T19:35:30.421Z,26.16
2022-08-02T19:38:09.247Z,26.00
2022-08-02T19:40:41.793Z,25.87
2022-08-02T19:44:23.317Z,25.72
2022-08-02T19:46:02.733Z,25.62
2022-08-02T19:48:31.614Z,25.48
2022-08-02T19:51:02.125Z,25.31
2022-08-02T19:53:47.936Z,25.16
2022-08-02T19:56:25.799Z,25.01
2022-08-02T19:58:58.034Z,24.84
2022-08-02T20:01:38.367Z,24.72
2022-08-02T20:04:13.401Z,24.60
2022-08-02T20:06:46.071Z,24.47
2022-08-02T20:09:20.995Z,24.35
2022-08-02T20:11:54.742Z,24.25
2022-08-02T20:14:27.992Z,24.13
2022-08-02T20:16:58.109Z,24.00
2022-08-02T20:19:29.072Z,23.88
2022-08-02T20:21:59.659Z,23.76
2022-08-02T20:24:30.633Z,23.65
2022-08-02T20:27:00.785Z,23.54
2022-08-02T20:29:43.245Z,23.45
2022-08-02T20:32:21.353Z,23.36
2022-08-02T20:34:52.421Z,23.24
2022-08-02T20:40:17.181Z,23.03
2022-08-02T20:42:48.455Z,22.95
2022-08-02T20:45:19.687Z,22.84
2022-08-02T20:47:50.885Z,22.75
2022-08-02T20:50:39.518Z,22.64
2022-08-02T20:53:23.992Z,22.55
2022-08-02T20:55:56.791Z,22.43
2022-08-02T20:58:26.958Z,22.33
2022-08-02T21:00:59.925Z,22.24
2022-08-02T21:03:39.543Z,22.17
2022-08-02T21:06:11.527Z,22.07
2022-08-02T21:08:46.078Z,22.00
2022-08-02T21:11:16.600Z,21.91
2022-08-02T21:13:46.884Z,21.80
2022-08-02T21:16:35.530Z,21.71
2022-08-02T21:19:08.008Z,21.66
2022-08-02T21:21:39.373Z,21.56
2022-08-02T21:24:11.308Z,21.47
2022-08-02T21:26:41.906Z,21.39
2022-08-02T21:29:13.671Z,21.32
2022-08-02T21:31:44.965Z,21.27
2022-08-02T21:34:26.777Z,21.22
2022-08-02T21:36:57.009Z,21.15
2022-08-02T21:39:26.066Z,21.11
2022-08-02T21:41:55.205Z,21.00
2022-08-02T21:44:24.596Z,20.94
2022-08-02T21:46:57.264Z,20.86
2022-08-02T21:50:09.170Z,20.80
2022-08-02T21:52:17.445Z,20.76
2022-08-02T21:54:47.032Z,20.71
2022-08-02T21:57:17.466Z,20.63
2022-08-02T21:59:48.028Z,20.57
2022-08-02T22:02:30.703Z,20.48
2022-08-02T22:05:02.631Z,20.41
2022-08-02T22:07:38.147Z,20.35
2022-08-02T22:10:10.077Z,20.27
2022-08-02T22:12:39.284Z,20.22
2022-08-02T22:15:10.541Z,20.15
2022-08-02T22:17:51.903Z,20.08
2022-08-02T22:20:23.223Z,20.03
2022-08-02T22:22:53.401Z,19.97
2022-08-02T22:25:31.189Z,19.90
2022-08-02T22:28:38.617Z,19.83
2022-08-02T22:30:59.947Z,19.75
2022-08-02T22:36:38.696Z,19.64
2022-08-02T22:42:06.818Z,19.53
2022-08-02T22:44:36.595Z,19.46
2022-08-02T22:47:14.894Z,19.41
2022-08-02T22:49:51.896Z,19.33
2022-08-02T22:52:23.918Z,19.29
2022-08-02T22:54:54.787Z,19.25
2022-08-02T22:57:29.877Z,19.18
2022-08-02T22:58:42.023Z,39.83
2022-08-02T22:59:05.992Z,23.14
2022-08-02T22:59:09.692Z,19.59
2022-08-02T22:59:12.506Z,19.68
2022-08-02T23:00:00.910Z,19.11
2022-08-02T23:02:30.165Z,19.03
2022-08-02T23:05:00.480Z,18.97
2022-08-02T23:07:29.542Z,18.94
2022-08-02T23:10:09.388Z,18.87
2022-08-02T23:12:40.609Z,18.81
2022-08-02T23:15:11.619Z,18.76
2022-08-02T23:18:03.864Z,18.70
2022-08-02T23:20:34.733Z,18.67
2022-08-02T23:23:03.846Z,18.63
2022-08-02T23:25:40.594Z,18.60
2022-08-02T23:28:09.395Z,18.53
2022-08-02T23:30:38.547Z,18.49
2022-08-02T23:33:07.497Z,18.43
2022-08-02T23:35:37.745Z,18.40
2022-08-02T23:38:06.744Z,18.36
2022-08-02T23:40:40.170Z,18.32
2022-08-02T23:43:14.050Z,18.26
2022-08-02T23:45:46.139Z,18.19
2022-08-02T23:48:15.440Z,18.15
2022-08-02T23:50:45.846Z,18.09
2022-08-02T23:53:14.715Z,18.03
2022-08-02T23:55:43.602Z,17.99
2022-08-02T23:58:13.459Z,17.92
